Time;durP1;ratioP1;P1;durP2;ratioP2;P2;SDS_P1;SDS_P2;PMS_P1;PMS_P2;Temp;Humidity;BMP_temperature;BMP_pressure;BME280_temperature;BME280_humidity;BME280_pressure;Samples;Min_cycle;Max_cycle;Signal;HPM_P1;HPM_P2
2021/12/09 00:00:30;;;;;;;4.90;2.43;;;6.70;99.90;;;;;;5030601;28;20917;-75
2021/12/09 00:02:57;;;;;;;6.63;2.90;;;6.70;99.90;;;;;;5033285;28;20169;-76
2021/12/09 00:05:23;;;;;;;5.55;2.65;;;6.70;99.90;;;;;;5051233;28;20189;-75
2021/12/09 00:07:52;;;;;;;4.35;1.70;;;6.70;99.90;;;;;;5050995;28;20238;-75
2021/12/09 00:10:18;;;;;;;4.93;2.10;;;6.80;99.90;;;;;;5033074;28;20540;-75
2021/12/09 00:12:45;;;;;;;4.80;1.90;;;6.80;99.90;;;;;;5050948;28;20260;-75
2021/12/09 00:15:11;;;;;;;6.57;2.25;;;6.80;99.90;;;;;;5033634;28;20659;-76
2021/12/09 00:17:37;;;;;;;4.60;2.50;;;6.80;99.90;;;;;;5051034;28;20586;-75
2021/12/09 00:20:05;;;;;;;5.73;1.80;;;6.80;99.90;;;;;;5050846;28;21006;-75
2021/12/09 00:22:30;;;;;;;3.40;1.90;;;6.80;99.90;;;;;;5050758;28;20572;-75
2021/12/09 00:24:56;;;;;;;4.43;1.90;;;6.70;99.90;;;;;;5051193;28;20173;-75
2021/12/09 00:27:22;;;;;;;3.97;1.93;;;6.70;99.90;;;;;;5050651;28;20287;-75
2021/12/09 00:29:47;;;;;;;5.57;1.93;;;6.70;99.90;;;;;;5016117;28;20193;-75
2021/12/09 00:32:13;;;;;;;4.10;1.60;;;6.70;99.90;;;;;;5033140;28;20169;-75
2021/12/09 00:34:42;;;;;;;3.17;1.50;;;6.60;99.90;;;;;;5050911;28;20585;-75
2021/12/09 00:37:53;;;;;;;2.88;1.30;;;6.60;99.90;;;;;;5050943;28;20169;-74
2021/12/09 00:40:00;;;;;;;5.00;1.77;;;6.60;99.90;;;;;;5047098;28;20594;-75
2021/12/09 00:42:27;;;;;;;7.33;1.80;;;6.60;99.90;;;;;;5053705;28;20244;-75
2021/12/09 00:44:54;;;;;;;5.30;2.20;;;6.60;99.90;;;;;;5036566;28;20173;-75
2021/12/09 00:47:21;;;;;;;5.05;1.73;;;6.60;99.90;;;;;;5054417;28;20199;-75
2021/12/09 00:49:49;;;;;;;3.65;1.67;;;6.60;99.90;;;;;;5036257;28;20239;-75
2021/12/09 00:52:15;;;;;;;4.30;1.50;;;6.60;99.90;;;;;;5054563;28;20161;-74
2021/12/09 00:54:42;;;;;;;5.13;2.15;;;6.60;99.90;;;;;;5036078;28;20256;-75
2021/12/09 00:57:10;;;;;;;4.50;1.88;;;6.60;99.90;;;;;;5054511;28;20173;-75
2021/12/09 00:59:36;;;;;;;4.57;2.25;;;6.60;99.90;;;;;;5035937;28;20256;-75
2021/12/09 01:02:02;;;;;;;3.70;1.50;;;6.50;99.90;;;;;;5036561;28;20180;-75
2021/12/09 01:04:27;;;;;;;4.22;1.27;;;6.50;99.90;;;;;;5054164;28;21210;-75
2021/12/09 01:07:38;;;;;;;6.37;2.10;;;6.50;99.90;;;;;;5024463;28;20283;-76
2021/12/09 01:10:07;;;;;;;4.10;1.85;;;6.50;99.90;;;;;;5022100;28;20216;-76
2021/12/09 01:12:33;;;;;;;2.75;1.48;;;6.40;99.90;;;;;;5053825;28;20168;-76
2021/12/09 01:14:59;;;;;;;3.93;1.53;;;6.40;99.90;;;;;;5053953;28;20535;-76
2021/12/09 01:17:26;;;;;;;2.70;1.40;;;6.40;99.90;;;;;;5036208;28;21106;-77
2021/12/09 01:19:53;;;;;;;2.90;2.05;;;6.30;99.90;;;;;;5035722;28;20641;-76
2021/12/09 01:22:20;;;;;;;4.22;1.90;;;6.30;99.90;;;;;;5053881;28;20196;-76
2021/12/09 01:24:45;;;;;;;4.45;1.52;;;6.30;99.90;;;;;;5053650;28;20165;-77
2021/12/09 01:27:11;;;;;;;6.03;2.10;;;6.40;99.90;;;;;;5053572;28;20654;-76
2021/12/09 01:29:42;;;;;;;6.20;2.67;;;6.30;99.90;;;;;;5035602;28;20685;-76
2021/12/09 01:32:12;;;;;;;4.45;2.28;;;6.30;99.90;;;;;;5035931;28;20173;-75
2021/12/09 01:34:38;;;;;;;3.60;1.45;;;6.30;99.90;;;;;;5035717;28;20169;-76
2021/12/09 01:37:04;;;;;;;4.57;1.50;;;6.40;99.90;;;;;;5019334;28;20779;-76
2021/12/09 01:39:31;;;;;;;4.70;1.83;;;6.40;99.90;;;;;;5035658;28;20585;-76
2021/12/09 01:41:58;;;;;;;3.28;1.42;;;6.40;99.90;;;;;;5036672;28;20227;-74
2021/12/09 01:44:24;;;;;;;4.97;1.50;;;6.40;99.90;;;;;;5056194;28;20161;-75
2021/12/09 01:46:50;;;;;;;2.80;1.50;;;6.40;99.90;;;;;;5042389;28;20157;-76
2021/12/09 01:49:17;;;;;;;2.92;1.20;;;6.40;99.90;;;;;;5039334;28;20205;-76
2021/12/09 01:51:45;;;;;;;3.50;1.20;;;6.40;99.90;;;;;;5056578;28;20208;-76
2021/12/09 01:54:12;;;;;;;4.03;1.10;;;6.40;99.90;;;;;;5056396;28;20165;-76
2021/12/09 01:56:38;;;;;;;2.20;1.10;;;6.40;99.90;;;;;;5057175;28;20165;-76
2021/12/09 01:59:05;;;;;;;4.13;1.40;;;6.40;99.90;;;;;;5053570;28;20561;-75
2021/12/09 02:01:32;;;;;;;4.65;1.98;;;6.40;99.90;;;;;;5053979;28;20219;-76
2021/12/09 02:03:59;;;;;;;2.90;1.15;;;6.40;99.90;;;;;;5053538;28;20181;-75
2021/12/09 02:06:26;;;;;;;5.90;1.38;;;6.40;99.90;;;;;;5053681;28;20169;-76
2021/12/09 02:08:53;;;;;;;2.95;1.70;;;6.50;99.90;;;;;;5052690;28;20401;-76
2021/12/09 02:11:20;;;;;;;2.90;1.70;;;6.50;99.90;;;;;;5019363;28;20223;-76
2021/12/09 02:13:51;;;;;;;3.80;1.55;;;6.50;99.90;;;;;;5052532;28;20165;-76
2021/12/09 02:16:17;;;;;;;3.78;1.58;;;6.50;99.90;;;;;;5034318;28;20176;-76
2021/12/09 02:18:44;;;;;;;4.90;1.63;;;6.50;99.90;;;;;;5052336;28;20200;-76
2021/12/09 02:21:22;;;;;;;2.28;1.40;;;6.50;99.90;;;;;;5052663;28;20177;-76
2021/12/09 02:23:51;;;;;;;7.40;1.83;;;6.50;99.90;;;;;;5034829;28;20165;-76
2021/12/09 02:26:25;;;;;;;5.57;1.88;;;6.40;99.90;;;;;;5052441;28;20219;-76
2021/12/09 02:28:52;;;;;;;4.55;1.65;;;6.40;99.90;;;;;;5034397;28;20257;-76
2021/12/09 02:31:18;;;;;;;6.80;1.55;;;6.40;99.90;;;;;;5034633;28;20503;-75
2021/12/09 02:33:44;;;;;;;3.43;1.60;;;6.40;99.90;;;;;;5052487;28;20169;-75
2021/12/09 02:36:10;;;;;;;3.83;1.70;;;6.40;99.90;;;;;;5001440;28;20572;-76
2021/12/09 02:38:43;;;;;;;2.70;1.50;;;6.40;99.90;;;;;;5051810;28;20193;-75
2021/12/09 02:41:14;;;;;;;4.55;1.30;;;6.40;99.90;;;;;;5052106;28;20176;-76
2021/12/09 02:43:41;;;;;;;3.25;1.50;;;6.30;99.90;;;;;;5051939;28;20177;-75
2021/12/09 02:46:07;;;;;;;3.53;1.40;;;6.30;99.90;;;;;;5034229;28;20177;-75
2021/12/09 02:48:34;;;;;;;4.03;1.93;;;6.30;99.90;;;;;;5033732;28;20203;-75
2021/12/09 02:51:01;;;;;;;3.60;1.00;;;6.20;99.90;;;;;;5034215;28;20181;-76
2021/12/09 02:53:27;;;;;;;4.82;1.67;;;6.20;99.90;;;;;;5051815;28;20256;-75
2021/12/09 02:55:53;;;;;;;5.05;1.77;;;6.20;99.90;;;;;;5051924;28;20692;-76
2021/12/09 02:58:22;;;;;;;2.60;1.50;;;6.10;99.90;;;;;;5051525;28;20268;-75
2021/12/09 03:00:56;;;;;;;2.67;1.25;;;6.10;99.90;;;;;;5034323;28;20173;-76
2021/12/09 03:03:22;;;;;;;5.25;1.40;;;6.10;99.90;;;;;;5051503;28;20191;-75
2021/12/09 03:05:51;;;;;;;3.95;1.38;;;6.10;99.90;;;;;;5033317;28;20632;-75
2021/12/09 03:08:22;;;;;;;5.60;1.85;;;6.00;99.90;;;;;;5051201;28;20227;-75
2021/12/09 03:10:48;;;;;;;5.53;1.38;;;6.00;99.90;;;;;;5051707;28;20165;-75
2021/12/09 03:13:15;;;;;;;3.13;1.13;;;6.00;99.90;;;;;;5051336;28;20169;-75
2021/12/09 03:15:41;;;;;;;5.45;1.63;;;5.90;99.90;;;;;;5051972;28;20885;-75
2021/12/09 03:18:07;;;;;;;6.80;1.93;;;5.90;99.90;;;;;;5051355;28;20242;-75
2021/12/09 03:20:33;;;;;;;2.93;1.30;;;5.90;99.90;;;;;;5050533;28;20650;-75
2021/12/09 03:22:59;;;;;;;5.07;1.90;;;5.90;99.90;;;;;;5033371;28;20175;-75
2021/12/09 03:25:24;;;;;;;3.40;1.43;;;5.90;99.90;;;;;;5051520;28;20575;-75
2021/12/09 03:27:50;;;;;;;3.30;1.30;;;5.80;99.90;;;;;;5051570;28;20211;-75
2021/12/09 03:30:18;;;;;;;3.13;1.30;;;5.80;99.90;;;;;;5051003;28;20599;-75
2021/12/09 03:32:44;;;;;;;4.97;1.35;;;5.70;99.90;;;;;;5033434;28;20560;-75
2021/12/09 03:35:12;;;;;;;5.70;1.50;;;5.70;99.90;;;;;;5051441;28;20164;-75
2021/12/09 03:37:39;;;;;;;5.20;1.67;;;5.70;99.90;;;;;;5051162;28;20617;-75
2021/12/09 03:40:06;;;;;;;2.60;1.20;;;5.60;99.90;;;;;;5050599;28;20201;-75
2021/12/09 03:42:33;;;;;;;5.15;1.95;;;5.60;99.90;;;;;;5051212;28;20180;-75
2021/12/09 03:45:00;;;;;;;4.10;1.40;;;5.60;99.90;;;;;;5033745;28;20532;-75
2021/12/09 03:47:29;;;;;;;3.08;1.52;;;5.60;99.90;;;;;;5033604;28;20204;-75
2021/12/09 03:49:55;;;;;;;3.53;1.20;;;5.60;99.90;;;;;;5050796;28;20228;-75
2021/12/09 03:52:21;;;;;;;4.22;1.55;;;5.60;99.90;;;;;;5033470;28;20204;-76
2021/12/09 03:54:48;;;;;;;4.22;1.95;;;5.50;99.90;;;;;;5032982;28;20169;-75
2021/12/09 03:57:14;;;;;;;2.53;1.95;;;5.50;99.90;;;;;;5033653;28;20517;-75
2021/12/09 03:59:42;;;;;;;5.72;2.03;;;5.50;99.90;;;;;;5032922;28;20735;-75
2021/12/09 04:02:08;;;;;;;3.22;1.50;;;5.50;99.90;;;;;;5051130;28;20260;-76
2021/12/09 04:04:34;;;;;;;4.43;2.45;;;5.40;99.90;;;;;;5033272;28;20720;-75
2021/12/09 04:06:59;;;;;;;4.60;1.57;;;5.40;99.90;;;;;;5051151;28;20260;-76
2021/12/09 04:09:25;;;;;;;2.87;1.63;;;5.40;99.90;;;;;;5050163;28;20234;-76
2021/12/09 04:11:52;;;;;;;5.30;1.20;;;5.40;99.90;;;;;;5033190;28;20173;-76
2021/12/09 04:14:19;;;;;;;2.92;1.42;;;5.40;99.90;;;;;;5033203;28;20165;-76
2021/12/09 04:16:45;;;;;;;3.67;1.88;;;5.40;99.90;;;;;;5052460;28;20177;-76
2021/12/09 04:19:12;;;;;;;4.13;1.40;;;5.40;99.90;;;;;;5036805;28;20199;-76
2021/12/09 04:21:40;;;;;;;2.67;1.52;;;5.40;99.90;;;;;;5054870;28;20180;-76
2021/12/09 04:24:08;;;;;;;3.45;1.38;;;5.30;99.90;;;;;;5054647;28;20238;-75
2021/12/09 04:26:35;;;;;;;4.13;1.80;;;5.30;99.90;;;;;;5055135;28;20222;-76
2021/12/09 04:29:03;;;;;;;4.68;2.13;;;5.30;99.90;;;;;;5054117;28;20200;-76
2021/12/09 04:31:29;;;;;;;4.45;2.10;;;5.20;99.90;;;;;;5037237;28;20639;-76
2021/12/09 04:33:54;;;;;;;6.33;2.10;;;5.20;99.90;;;;;;5054407;28;20252;-75
2021/12/09 04:36:21;;;;;;;2.90;1.60;;;5.20;99.90;;;;;;5054780;28;20680;-76
2021/12/09 04:38:48;;;;;;;6.28;2.67;;;5.10;99.90;;;;;;5053728;28;20731;-76
2021/12/09 04:41:15;;;;;;;4.15;2.03;;;5.10;99.90;;;;;;5054921;28;20530;-76
2021/12/09 04:43:42;;;;;;;4.13;1.70;;;5.10;99.90;;;;;;5054185;28;20177;-76
2021/12/09 04:46:10;;;;;;;5.90;1.65;;;5.10;99.90;;;;;;5054746;28;20582;-76
2021/12/09 04:48:36;;;;;;;2.45;1.55;;;5.10;99.90;;;;;;5053662;28;20196;-76
2021/12/09 04:51:02;;;;;;;3.13;1.80;;;5.10;99.90;;;;;;5054593;28;20169;-76
2021/12/09 04:53:28;;;;;;;6.40;2.10;;;5.10;99.90;;;;;;5019593;28;20566;-76
2021/12/09 04:55:54;;;;;;;2.42;1.70;;;5.10;99.90;;;;;;5054705;28;20563;-76
2021/12/09 04:58:20;;;;;;;5.93;1.60;;;5.10;99.90;;;;;;5019934;28;20231;-75
2021/12/09 05:00:48;;;;;;;5.15;2.20;;;5.00;99.90;;;;;;5055215;28;20179;-75
2021/12/09 05:03:14;;;;;;;5.22;2.05;;;5.00;99.90;;;;;;5055918;28;20169;-76
2021/12/09 05:05:46;;;;;;;6.80;2.55;;;5.00;99.90;;;;;;5036291;28;20172;-75
2021/12/09 05:08:15;;;;;;;4.32;2.17;;;5.00;99.90;;;;;;5036345;28;20208;-75
2021/12/09 05:11:07;;;;;;;5.35;2.13;;;5.00;99.90;;;;;;5053818;28;20243;-76
2021/12/09 05:13:37;;;;;;;3.40;2.45;;;5.00;99.90;;;;;;5035901;28;20169;-75
2021/12/09 05:16:05;;;;;;;4.15;2.40;;;5.00;99.90;;;;;;5053970;28;20219;-75
2021/12/09 05:18:33;;;;;;;3.13;1.85;;;5.00;99.90;;;;;;5035632;28;20579;-75
2021/12/09 05:21:01;;;;;;;4.65;2.72;;;5.00;99.90;;;;;;5053870;28;20586;-75
2021/12/09 05:23:27;;;;;;;6.38;2.42;;;5.00;99.90;;;;;;5053760;28;20676;-75
2021/12/09 05:25:53;;;;;;;4.20;2.33;;;5.00;99.90;;;;;;5053803;28;20169;-76
2021/12/09 05:28:27;;;;;;;10.70;3.20;;;5.00;99.90;;;;;;5052288;28;20633;-75
2021/12/09 05:33:39;;;;;;;2.88;1.80;;;5.00;99.90;;;;;;5053623;28;20179;-73
2021/12/09 05:36:05;;;;;;;8.23;2.78;;;4.90;99.90;;;;;;5053885;28;20226;-73
2021/12/09 05:38:31;;;;;;;3.93;2.10;;;4.90;99.90;;;;;;5035926;28;20564;-73
2021/12/09 05:40:57;;;;;;;2.87;2.27;;;4.90;99.90;;;;;;5036152;28;20189;-72
2021/12/09 05:43:22;;;;;;;4.07;2.00;;;4.90;99.90;;;;;;5035984;28;20576;-73
2021/12/09 05:45:49;;;;;;;4.23;2.37;;;4.90;99.90;;;;;;5036137;28;20176;-72
2021/12/09 05:48:15;;;;;;;4.80;2.10;;;4.90;99.90;;;;;;5035576;28;20220;-72
2021/12/09 05:50:41;;;;;;;5.65;2.75;;;4.90;99.90;;;;;;5053499;28;20492;-73
2021/12/09 05:53:08;;;;;;;5.18;2.08;;;4.90;99.90;;;;;;5053747;28;20173;-74
2021/12/09 05:55:34;;;;;;;5.20;2.42;;;4.80;99.90;;;;;;5054194;28;20172;-73
2021/12/09 05:58:00;;;;;;;8.27;2.95;;;4.80;99.90;;;;;;5053706;28;20594;-74
2021/12/09 06:00:27;;;;;;;3.40;2.28;;;4.80;99.90;;;;;;5019142;28;20281;-72
2021/12/09 06:02:53;;;;;;;3.75;2.35;;;4.80;99.90;;;;;;5053336;28;20180;-73
2021/12/09 06:05:18;;;;;;;3.07;1.80;;;4.80;99.90;;;;;;5053561;28;20168;-72
2021/12/09 06:07:45;;;;;;;4.33;2.40;;;4.80;99.90;;;;;;5053575;28;20197;-72
2021/12/09 06:10:11;;;;;;;5.65;2.88;;;4.80;99.90;;;;;;5035541;28;20635;-72
2021/12/09 06:12:37;;;;;;;4.50;2.37;;;4.80;99.90;;;;;;5053494;28;20564;-73
2021/12/09 06:15:05;;;;;;;3.83;1.80;;;4.80;99.90;;;;;;5053042;28;20590;-73
2021/12/09 06:17:30;;;;;;;7.07;2.60;;;4.80;99.90;;;;;;5035650;28;20256;-73
2021/12/09 06:19:56;;;;;;;4.40;1.83;;;4.80;99.90;;;;;;5053054;28;20217;-74
2021/12/09 06:22:22;;;;;;;4.45;2.10;;;4.80;99.90;;;;;;5035340;28;20208;-72
2021/12/09 06:24:48;;;;;;;4.17;1.93;;;4.80;99.90;;;;;;5052727;28;20599;-73
2021/12/09 06:27:13;;;;;;;4.70;1.77;;;4.80;99.90;;;;;;5052639;28;20173;-72
2021/12/09 06:29:40;;;;;;;5.10;1.93;;;4.80;99.90;;;;;;5052541;28;20666;-72
2021/12/09 06:32:06;;;;;;;5.07;2.10;;;4.80;99.90;;;;;;5052678;28;20179;-75
2021/12/09 06:34:33;;;;;;;3.67;1.95;;;4.80;99.90;;;;;;5034743;28;20637;-75
2021/12/09 06:36:59;;;;;;;5.05;2.58;;;4.80;99.90;;;;;;5035069;28;20226;-75
2021/12/09 06:39:24;;;;;;;6.60;2.37;;;4.80;99.90;;;;;;5034730;28;20307;-75
2021/12/09 06:41:50;;;;;;;4.90;2.10;;;4.80;99.90;;;;;;5034721;28;20181;-75
2021/12/09 06:44:16;;;;;;;5.43;2.70;;;4.70;99.90;;;;;;5034638;28;20574;-76
2021/12/09 06:46:42;;;;;;;5.00;3.17;;;4.70;99.90;;;;;;5034394;28;20606;-76
2021/12/09 06:49:08;;;;;;;5.27;2.07;;;4.70;99.90;;;;;;5051912;28;20192;-75
2021/12/09 06:51:33;;;;;;;3.47;1.87;;;4.70;99.90;;;;;;5052158;28;20173;-75
2021/12/09 06:53:59;;;;;;;4.47;1.93;;;4.70;99.90;;;;;;5034564;28;20516;-76
2021/12/09 06:56:33;;;;;;;6.78;2.50;;;4.70;99.90;;;;;;5052732;28;20563;-76
2021/12/09 06:59:00;;;;;;;6.70;2.95;;;4.70;99.90;;;;;;5053654;28;20276;-75
2021/12/09 07:01:26;;;;;;;6.97;3.05;;;4.60;99.90;;;;;;5053631;28;20186;-75
2021/12/09 07:03:53;;;;;;;3.67;2.30;;;4.60;99.90;;;;;;5033957;28;20179;-75
2021/12/09 07:06:19;;;;;;;5.85;2.05;;;4.60;99.90;;;;;;5051138;28;21183;-75
2021/12/09 07:08:48;;;;;;;5.68;2.50;;;4.50;99.90;;;;;;5051177;28;20788;-75
2021/12/09 07:11:16;;;;;;;3.95;1.70;;;4.50;99.90;;;;;;5051432;28;20157;-75
2021/12/09 07:13:43;;;;;;;4.80;2.25;;;4.50;99.90;;;;;;5050588;28;20692;-75
2021/12/09 07:16:09;;;;;;;2.40;1.52;;;4.60;99.90;;;;;;5032604;28;20207;-75
2021/12/09 07:18:36;;;;;;;5.75;3.10;;;4.60;99.90;;;;;;4999578;28;21073;-76
2021/12/09 07:21:03;;;;;;;6.00;3.30;;;4.50;99.90;;;;;;5051158;28;20919;-75
2021/12/09 07:23:29;;;;;;;8.23;2.35;;;4.40;99.90;;;;;;5052012;28;20570;-76
2021/12/09 07:25:54;;;;;;;5.10;1.97;;;4.50;99.90;;;;;;5052086;28;20251;-76
2021/12/09 07:28:20;;;;;;;4.20;1.93;;;4.50;99.90;;;;;;5033909;28;20220;-76
2021/12/09 07:30:46;;;;;;;3.27;1.93;;;4.60;99.90;;;;;;5017483;28;20951;-76
2021/12/09 07:33:12;;;;;;;5.33;2.20;;;4.60;99.90;;;;;;5051623;28;20651;-76
2021/12/09 07:35:39;;;;;;;5.43;2.10;;;4.60;99.90;;;;;;5051771;28;21107;-76
2021/12/09 07:38:05;;;;;;;2.53;1.90;;;4.60;99.90;;;;;;5051163;28;20629;-75
2021/12/09 07:40:32;;;;;;;5.75;2.13;;;4.60;99.90;;;;;;5056521;23;20216;-79
2021/12/09 07:42:58;;;;;;;3.25;1.90;;;4.70;99.90;;;;;;5021198;28;20194;-79
2021/12/09 07:45:24;;;;;;;4.07;2.30;;;4.60;99.90;;;;;;5030626;28;20287;-80
2021/12/09 07:47:51;;;;;;;8.20;2.53;;;4.60;99.90;;;;;;5051581;28;20287;-79
2021/12/09 07:50:20;;;;;;;5.60;2.30;;;4.60;99.90;;;;;;5032801;28;20173;-79
2021/12/09 07:52:48;;;;;;;3.20;2.30;;;4.60;99.90;;;;;;5026574;28;20193;-79
2021/12/09 07:55:15;;;;;;;4.07;2.67;;;4.60;99.90;;;;;;5047456;28;20168;-78
2021/12/09 07:57:42;;;;;;;3.55;2.10;;;4.70;99.90;;;;;;5038386;28;20624;-79
2021/12/09 08:00:12;;;;;;;4.15;2.17;;;4.70;99.90;;;;;;5032545;28;20177;-80
2021/12/09 08:02:42;;;;;;;5.57;2.10;;;4.70;99.90;;;;;;5051353;28;20189;-78
2021/12/09 08:05:09;;;;;;;4.22;1.90;;;4.70;99.90;;;;;;5016964;28;20221;-79
2021/12/09 08:07:35;;;;;;;4.95;2.50;;;4.80;99.90;;;;;;5017097;28;20208;-79
2021/12/09 08:10:01;;;;;;;3.40;2.00;;;4.80;99.90;;;;;;5032787;28;20169;-79
2021/12/09 08:12:26;;;;;;;3.03;1.90;;;4.90;99.90;;;;;;5051131;28;20629;-76
2021/12/09 08:14:52;;;;;;;4.70;2.60;;;4.90;99.90;;;;;;5033100;28;20153;-78
2021/12/09 08:17:44;;;;;;;5.20;2.53;;;5.00;99.90;;;;;;5050957;28;20225;-78
2021/12/09 08:20:13;;;;;;;3.50;2.38;;;5.00;99.90;;;;;;5031803;28;20526;-78
2021/12/09 08:22:41;;;;;;;3.30;2.60;;;5.10;99.90;;;;;;5030846;28;20197;-78
2021/12/09 08:25:10;;;;;;;2.70;1.77;;;5.20;99.90;;;;;;5029983;28;20269;-78
2021/12/09 08:27:36;;;;;;;3.10;2.25;;;5.30;99.90;;;;;;4996091;28;20208;-78
2021/12/09 08:30:06;;;;;;;6.45;2.30;;;5.30;99.90;;;;;;5012860;28;20174;-76
2021/12/09 08:32:33;;;;;;;8.30;3.33;;;5.30;99.90;;;;;;5012990;28;20189;-78
2021/12/09 08:34:59;;;;;;;7.60;2.88;;;5.30;99.90;;;;;;5017758;28;20202;-78
2021/12/09 08:37:25;;;;;;;4.18;2.35;;;5.30;99.90;;;;;;5030903;28;20169;-78
2021/12/09 08:39:51;;;;;;;5.53;2.72;;;5.40;99.90;;;;;;4996325;28;20638;-78
2021/12/09 08:42:17;;;;;;;5.20;3.20;;;5.40;99.90;;;;;;5012691;28;20205;-78
2021/12/09 08:44:44;;;;;;;6.05;3.20;;;5.40;99.90;;;;;;5030798;28;20178;-78
2021/12/09 08:47:10;;;;;;;4.05;2.28;;;5.40;99.90;;;;;;5012958;28;20173;-78
2021/12/09 08:49:35;;;;;;;4.85;2.47;;;5.40;99.90;;;;;;5030264;28;20210;-78
2021/12/09 08:52:02;;;;;;;5.63;2.87;;;5.40;99.90;;;;;;4980578;28;20680;-78
2021/12/09 08:54:27;;;;;;;5.00;2.25;;;5.40;99.90;;;;;;5029531;28;20531;-78
2021/12/09 08:56:53;;;;;;;7.10;3.33;;;5.40;99.90;;;;;;5013126;28;20166;-79
2021/12/09 08:59:22;;;;;;;7.50;3.73;;;5.50;99.90;;;;;;5030255;28;20292;-77
2021/12/09 09:01:49;;;;;;;5.30;3.65;;;5.50;99.90;;;;;;5013265;28;20243;-77
2021/12/09 09:04:15;;;;;;;7.47;3.10;;;5.50;99.90;;;;;;5015435;28;20185;-76
2021/12/09 09:06:51;;;;;;;5.50;3.30;;;5.50;99.90;;;;;;5034516;28;20166;-76
2021/12/09 09:09:16;;;;;;;3.72;3.10;;;5.60;99.90;;;;;;5015932;28;20223;-77
2021/12/09 09:11:42;;;;;;;9.87;3.00;;;5.60;99.90;;;;;;5030693;28;20193;-78
2021/12/09 09:14:08;;;;;;;4.80;2.73;;;5.60;99.90;;;;;;5016219;28;20576;-78
2021/12/09 09:16:34;;;;;;;3.47;2.40;;;5.60;99.90;;;;;;5034346;28;20622;-77
2021/12/09 09:19:01;;;;;;;3.67;2.47;;;5.70;99.90;;;;;;5033366;28;20178;-77
2021/12/09 09:21:28;;;;;;;4.18;2.13;;;5.70;99.90;;;;;;5034116;28;20680;-77
2021/12/09 09:23:56;;;;;;;4.15;2.45;;;5.80;99.90;;;;;;5033402;28;20185;-77
2021/12/09 09:26:22;;;;;;;9.75;2.95;;;5.90;99.90;;;;;;5032914;28;20232;-77
2021/12/09 09:28:48;;;;;;;6.60;3.30;;;6.00;99.90;;;;;;5015284;28;20312;-77
2021/12/09 09:31:14;;;;;;;6.38;4.40;;;6.00;99.90;;;;;;5015696;28;20603;-76
2021/12/09 09:33:40;;;;;;;9.40;4.88;;;6.10;99.90;;;;;;5033928;28;20542;-76
2021/12/09 09:36:07;;;;;;;7.00;4.90;;;6.20;99.90;;;;;;5033359;28;20170;-76
2021/12/09 09:38:33;;;;;;;5.30;3.60;;;6.20;99.90;;;;;;5032306;28;20165;-77
2021/12/09 09:41:10;;;;;;;9.38;4.05;;;6.30;99.90;;;;;;5032801;28;20298;-77
2021/12/09 09:46:19;;;;;;;8.80;4.00;;;6.40;99.90;;;;;;5016166;28;20180;-77
2021/12/09 09:48:48;;;;;;;5.57;3.38;;;6.40;99.90;;;;;;5021932;28;20687;-76
2021/12/09 09:51:14;;;;;;;10.80;3.60;;;6.40;99.90;;;;;;5016579;28;20193;-76
2021/12/09 09:53:42;;;;;;;6.10;3.88;;;6.50;99.90;;;;;;5033182;28;20236;-76
2021/12/09 09:56:14;;;;;;;7.28;3.90;;;6.50;99.90;;;;;;5015170;28;20158;-76
2021/12/09 09:58:46;;;;;;;5.60;4.70;;;6.50;99.90;;;;;;5014854;28;20251;-77
2021/12/09 10:01:13;;;;;;;5.22;4.03;;;6.50;99.90;;;;;;4999207;28;20251;-76
2021/12/09 10:03:44;;;;;;;4.93;3.83;;;6.50;99.90;;;;;;5015322;28;20579;-76
2021/12/09 10:06:10;;;;;;;5.60;3.28;;;6.60;99.90;;;;;;5015166;28;20191;-75
2021/12/09 10:08:37;;;;;;;4.55;2.90;;;6.60;99.90;;;;;;5032635;28;20197;-75
2021/12/09 10:11:03;;;;;;;6.18;2.80;;;6.70;99.90;;;;;;5014852;28;20280;-76
2021/12/09 10:13:35;;;;;;;6.05;3.45;;;6.80;99.90;;;;;;5032443;28;20162;-77
2021/12/09 10:16:05;;;;;;;5.65;3.15;;;6.80;99.90;;;;;;4998873;28;20249;-76
2021/12/09 10:18:43;;;;;;;7.88;3.60;;;6.90;99.90;;;;;;4998674;28;20170;-76
2021/12/09 10:21:21;;;;;;;8.55;3.25;;;6.90;99.90;;;;;;5015324;28;20212;-76
2021/12/09 10:23:50;;;;;;;4.57;3.22;;;7.00;99.90;;;;;;5015346;28;20579;-76
2021/12/09 10:26:30;;;;;;;5.15;2.90;;;7.10;99.90;;;;;;5036931;28;20154;-76
2021/12/09 10:29:36;;;;;;;5.75;2.90;;;7.10;99.90;;;;;;5032372;28;20267;-76
2021/12/09 10:32:20;;;;;;;5.10;2.95;;;7.20;99.90;;;;;;4983447;28;20600;-76
2021/12/09 10:34:48;;;;;;;5.97;2.75;;;7.30;99.90;;;;;;5032399;28;20228;-77
2021/12/09 10:37:26;;;;;;;3.15;2.40;;;7.40;99.90;;;;;;5014684;28;20169;-76
2021/12/09 10:40:07;;;;;;;5.28;2.92;;;7.50;99.90;;;;;;5014273;28;20164;-77
2021/12/09 10:42:44;;;;;;;3.35;2.38;;;7.50;99.90;;;;;;5031993;28;20193;-77
2021/12/09 10:45:16;;;;;;;6.90;2.45;;;7.60;99.90;;;;;;5032583;28;20261;-77
2021/12/09 10:48:01;;;;;;;3.58;2.88;;;7.60;99.90;;;;;;5032489;28;20201;-77
2021/12/09 10:50:42;;;;;;;6.75;2.85;;;7.70;99.90;;;;;;5014483;28;20533;-78
2021/12/09 10:55:46;;;;;;;5.20;2.08;;;7.90;99.90;;;;;;5032414;28;20177;-77
2021/12/09 10:58:16;;;;;;;4.65;2.70;;;8.10;99.90;;;;;;5014686;28;20174;-77
2021/12/09 11:00:52;;;;;;;4.38;2.95;;;8.20;99.90;;;;;;5014866;28;20181;-76
2021/12/09 11:03:40;;;;;;;3.75;2.92;;;8.20;99.90;;;;;;5016397;28;20177;-77
2021/12/09 11:06:09;;;;;;;6.95;2.20;;;8.30;99.90;;;;;;5032215;28;20181;-77
2021/12/09 11:08:44;;;;;;;5.60;2.40;;;8.40;99.90;;;;;;5031414;28;20212;-77
2021/12/09 11:11:16;;;;;;;4.63;2.00;;;8.40;99.90;;;;;;5031927;28;20193;-77
2021/12/09 11:13:49;;;;;;;5.22;2.95;;;8.40;99.90;;;;;;5014189;28;20180;-77
2021/12/09 11:16:34;;;;;;;4.90;2.35;;;8.40;99.90;;;;;;5032078;28;20189;-77
2021/12/09 11:19:15;;;;;;;9.38;3.10;;;8.50;99.90;;;;;;5013860;28;20177;-76
2021/12/09 11:21:46;;;;;;;3.30;2.28;;;8.50;99.90;;;;;;5013997;28;20197;-77
2021/12/09 11:24:19;;;;;;;4.40;1.92;;;8.50;99.90;;;;;;5031620;28;20260;-77
2021/12/09 11:26:54;;;;;;;3.70;1.60;;;8.50;99.90;;;;;;5013385;28;20183;-76
2021/12/09 11:29:27;;;;;;;2.55;1.80;;;8.50;99.90;;;;;;5031806;28;20863;-76
2021/12/09 11:32:20;;;;;;;2.55;1.55;;;8.50;99.90;;;;;;5031941;28;20177;-76
2021/12/09 11:34:56;;;;;;;4.50;2.00;;;8.40;99.90;;;;;;5030921;28;20174;-76
2021/12/09 11:40:12;;;;;;;3.63;2.10;;;8.40;99.90;;;;;;5018538;28;20185;-77
2021/12/09 11:42:52;;;;;;;6.55;1.92;;;8.40;99.90;;;;;;5013711;28;20209;-77
2021/12/09 11:45:25;;;;;;;4.10;1.80;;;8.40;99.90;;;;;;5031411;28;20169;-77
2021/12/09 11:47:53;;;;;;;4.97;1.60;;;8.40;99.90;;;;;;5031703;28;20201;-77
2021/12/09 11:50:56;;;;;;;4.95;2.08;;;8.50;99.90;;;;;;5012884;28;20174;-77
2021/12/09 11:53:24;;;;;;;4.10;1.88;;;8.60;99.90;;;;;;5027105;28;20185;-77
2021/12/09 11:56:06;;;;;;;3.08;1.20;;;8.70;99.90;;;;;;5031143;28;20166;-76
2021/12/09 11:58:39;;;;;;;6.05;1.95;;;8.80;99.90;;;;;;4996888;28;20173;-76
2021/12/09 12:18:24;;;;;;;6.60;2.47;;;8.70;99.90;;;;;;5015685;28;20189;-77
2021/12/09 12:23:33;;;;;;;4.38;3.08;;;8.60;99.90;;;;;;5031143;28;20177;-77
2021/12/09 12:32:03;;;;;;;4.68;1.50;;;8.60;99.90;;;;;;5013314;28;20217;-77
2021/12/09 12:37:52;;;;;;;6.95;2.00;;;8.70;99.90;;;;;;5014461;28;20173;-77
2021/12/09 12:40:35;;;;;;;2.55;1.90;;;8.60;99.90;;;;;;5016965;28;20170;-77
2021/12/09 12:43:10;;;;;;;4.90;2.53;;;8.70;99.90;;;;;;5034636;28;20660;-77
2021/12/09 12:51:32;;;;;;;4.80;2.33;;;8.60;99.90;;;;;;5055282;28;20189;-77
2021/12/09 12:54:30;;;;;;;4.45;2.53;;;8.60;99.90;;;;;;5032055;28;20204;-77
2021/12/09 12:57:00;;;;;;;5.43;1.55;;;8.60;99.90;;;;;;5020423;28;20173;-77
2021/12/09 12:59:39;;;;;;;5.43;2.65;;;8.60;99.90;;;;;;5029452;28;20178;-76
2021/12/09 13:05:19;;;;;;;4.35;1.60;;;8.60;99.90;;;;;;5020249;28;20170;-77
2021/12/09 13:16:12;;;;;;;7.25;1.80;;;8.70;99.90;;;;;;5036196;28;20171;-77
2021/12/09 13:18:43;;;;;;;2.67;1.20;;;8.70;99.90;;;;;;5018348;28;20551;-78
2021/12/09 13:21:42;;;;;;;2.60;1.35;;;8.70;99.90;;;;;;5018622;28;20205;-77
2021/12/09 13:27:11;;;;;;;3.22;1.90;;;8.80;99.90;;;;;;5016072;28;20714;-79
2021/12/09 13:29:55;;;;;;;2.85;1.98;;;8.70;99.90;;;;;;5035130;28;20714;-78
2021/12/09 13:50:46;;;;;;;2.53;1.10;;;9.00;99.90;;;;;;5054510;28;20208;-77
2021/12/09 13:55:57;;;;;;;3.22;1.20;;;9.00;99.90;;;;;;5073417;28;20183;-77
2021/12/09 13:58:23;;;;;;;4.30;1.30;;;9.00;99.90;;;;;;5054671;28;20575;-77
2021/12/09 14:00:51;;;;;;;3.97;1.33;;;9.00;99.90;;;;;;5073049;28;20214;-77
2021/12/09 14:03:23;;;;;;;3.33;1.45;;;9.00;99.90;;;;;;5054607;28;20603;-77
2021/12/09 14:06:04;;;;;;;1.95;1.10;;;9.00;99.90;;;;;;5073055;28;20255;-77
2021/12/09 14:08:40;;;;;;;1.92;1.05;;;9.00;99.90;;;;;;5072292;28;20196;-77
2021/12/09 14:11:19;;;;;;;2.50;0.90;;;9.10;99.90;;;;;;5072781;28;20183;-77
2021/12/09 14:13:57;;;;;;;2.95;0.98;;;9.10;99.90;;;;;;5072234;28;20525;-77
2021/12/09 14:16:50;;;;;;;6.53;1.65;;;9.10;99.90;;;;;;5038444;28;21051;-78
2021/12/09 14:21:36;;;;;;;2.53;1.47;;;9.10;99.90;;;;;;5072672;28;20283;-77
2021/12/09 14:24:19;;;;;;;1.60;1.42;;;9.10;99.90;;;;;;5054452;28;20255;-77
2021/12/09 14:27:10;;;;;;;1.65;1.02;;;9.10;99.90;;;;;;5054848;28;20177;-77
2021/12/09 14:29:37;;;;;;;1.40;0.70;;;9.10;99.90;;;;;;5042344;28;20303;-77
2021/12/09 14:32:06;;;;;;;2.50;1.10;;;9.10;99.90;;;;;;5072499;28;20188;-77